Tiempo atmosférico en la estación meteorológica de Segovia, Segovia (1005 m.)



Fecha
DESCASC
Temp. máxima en grados centígrados (hora)
DESCASC
Temp. mínima en grados centígrados (hora)
DESCASC
Temp. media en grados centígrados
DESCASC
Racha de viento máxima en m/sg (hora)
DESCASC
Velocidad máxima media en intervalos de 10 minutos(hora)
DESCASC
Precipitaciones diarias en mm
DESCASC
Precipitaciones de 00:00 a 06:00 en mm
DESCASC
Precipitaciones de 06:00 a 12:00 en mm
DESCASC
Precipitaciones de 12:00 a 18:00 en mm
DESCASC
Precipitaciones de 18:00 a 24:00 en mm
DESCASC
19-01-2020 4.2 (00:10) -1.6 (23:40) 1.3 17.5 (17:50) 8.33 (16:20) 3.2 1.4 1.8 0 0
18-01-2020 12.4 (16:20) 3.2 (01:40) 7.8 18.33 (20:00) 11.11 (20:00) 1 0 0.2 0 0.8
17-01-2020 8.7 (15:50) 3 (21:20) 5.8 10.83 (09:30) 7.22 (09:40) 0.2 0 0.2 0 0
16-01-2020 12.7 (14:10) 6.3 (00:00) 9.5 14.17 (14:30) 9.17 (14:40) 0.2 0 0 0 0.2
15-01-2020 11 (15:50) 5.2 (00:00) 8.1 14.17 (02:50) 10 (03:10) 0 0 0 0 0
14-01-2020 8.9 (16:10) -2.2 (-00:0) 3.3 8.33 (19:50) 5.56 (19:50) 0 0 0 0 0
13-01-2020 9.1 (16:40) -0.4 (00:00) 4.4 4.72 (11:40) 3.33 (19:00) 0 0 0 0 0
12-01-2020 9.2 (16:00) -2 (09:00) 3.6 4.17 (13:40) 2.78 (13:40) 0 0 0 0 0
11-01-2020 7.2 (16:30) -3.2 (-00:0) 2 3.33 (13:00) 2.22 (00:10) 0 0 0 0 0
10-01-2020 7 (15:10) 0.4 (00:00) 3.7 11.67 (15:40) 8.06 (15:40) 0 0 0 0 0
09-01-2020 12.3 (15:20) 0.3 (00:00) 6.3 9.17 (21:50) 5.56 (21:40) 0 0 0 0 0
08-01-2020 12.3 (16:00) 1.5 (00:00) 6.9 3.89 (15:20) 2.5 (15:00) 0 0 0 0 0
07-01-2020 12.7 (15:50) 0.7 (00:00) 6.7 3.33 (14:00) 2.22 (14:10) 0 0 0 0 0
06-01-2020 13.3 (16:20) -2.8 (-00:0) 5.3 3.61 (13:30) 2.78 (20:20) 0 0 0 0 0
05-01-2020 7.9 (15:30) -2.4 (-00:0) 2.8 4.17 (05:50) 2.78 (06:00) 0 0 0 0 0
04-01-2020 4.4 (16:10) 0 (00:00) 2.2 4.72 (02:30) 3.33 (14:40) 0 0 0 0 0
03-01-2020 4.7 (00:00) 0.1 (00:00) 2.4 4.72 (15:00) 3.33 (15:10) 0 0 0 0 0
02-01-2020 14.8 (14:40) 2.6 (00:00) 8.7 3.89 (19:20) 3.33 (19:20) 0 0 0 0 0
01-01-2020 15.7 (14:40) 2.4 (00:00) 9 3.89 (19:20) 2.78 (19:20) 0 0 0 0 0
31-12-2019 14.9 (14:40) 2.7 (00:00) 8.8 4.17 (14:40) 2.5 (00:50) 0 0 0 0 0
30-12-2019 15.4 (16:40) 2.6 (00:00) 9 3.33 (23:40) 2.22 (23:40) 0 0 0 0 0
29-12-2019 15.6 (12:30) 2.7 (00:00) 9.2 3.33 (14:20) 2.5 (04:10) 0 0 0 0 0
28-12-2019 14.7 (12:40) 2.8 (00:00) 8.7 4.72 (14:50) 3.61 (14:50) 0 0 0 0 0
27-12-2019 10.5 (15:10) 1.4 (00:00) 5.9 4.72 (01:30) 3.61 (01:30) 0 0 0 0 0
26-12-2019 11.5 (14:50) 2.7 (00:00) 7.1 4.17 (04:10) 3.61 (04:10) 0 0 0 0 0
25-12-2019 17.6 (15:20) 7.1 (00:00) 12.4 6.39 (17:20) 2.78 (00:10) 0 0 0 0 0
24-12-2019 16.4 (15:20) 7.8 (07:10) 12.1 5.56 (02:20) 4.72 (02:20) 0 0 0 0 0
23-12-2019 13 (15:40) 2.7 (00:00) 7.9 5.83 (23:20) 4.44 (09:30) 0 0 0 0 0
22-12-2019 10.7 (13:30) 5 (23:50) 7.8 21.11 (00:40) 15.28 (00:30) 1.6 0.6 0.4 0.2 0.4

Gráficas

Temp. máximas Temp. mínimas Temp. medias Precipitaciones Rachas de viento máximas Velocidades máximas media en intervalos de 10 minutos

Datos horarios

Fecha y hora oficial Temperatura (ºC) Velocidad del viento (km/h) Dirección del viento Racha (km/h) Dirección de racha Precipitación (mm) Presión (hPa) Tendencia (hPa) Humedad (%)
2020-01-20 23:00:00 -0.1 12 Nordeste 32 Nordeste 0 907.9 0.5 94
2020-01-20 22:00:00 0.1 21 Nordeste 38 Este 0 907.6 0.5 93
2020-01-20 21:00:00 -0.3 11 Nordeste 30 Norte 0 907.6 0.6 91
2020-01-20 20:00:00 -0.2 17 Norte 30 Nordeste 0 907.4 0.7 79
2020-01-20 19:00:00 0 15 Nordeste 35 Nordeste 0 907.1 0.1 85
2020-01-20 18:00:00 0.8 20 Nordeste 38 Nordeste 0 907 -0.4 78
2020-01-20 17:00:00 1.6 15 Nordeste 40 Nordeste 0 906.7 -0.9 64
2020-01-20 16:00:00 2.5 11 Nordeste 33 Nordeste 0 907 -1.4 46
2020-01-20 15:00:00 1.6 17 Nordeste 41 Este 0 907.4 -1.5 45
2020-01-20 14:00:00 1.7 17 Nordeste 36 Nordeste 0 907.6 -1.4 44
2020-01-20 13:00:00 0.9 15 Nordeste 30 Nordeste 0 908.4 -0.1 41
2020-01-20 12:00:00 -0.2 11 Nordeste 29 Norte 0 908.9 0.7 49
2020-01-20 11:00:00 -1.1 12 Norte 35 Nordeste 0 909 1 52
2020-01-20 10:00:00 -1.6 15 Norte 29 Nordeste 0 908.5 0.4 55
2020-01-20 09:00:00 -3.1 12 Norte 25 Nordeste 0 908.2 -0.2 63
2020-01-20 08:00:00 -3.3 14 Nordeste 25 Nordeste 0 908 -1.1 66
2020-01-20 07:00:00 -3.5 9 Nordeste 23 Nordeste 0 908.1 -1.3 70
2020-01-20 06:00:00 -3.3 9 Nordeste 22 Nordeste 0 908.4 -1.4 70
2020-01-20 05:00:00 -3.1 11 Nordeste 21 Norte 0 909.1 -1 66
2020-01-20 04:00:00 -2.9 9 Norte 21 Norte 0 909.4 -0.8 65
2020-01-20 03:00:00 -2.7 7 Norte 16 Norte 0 909.8 -0.7 65
2020-01-20 02:00:00 -2.1 6 Norte 18 Nordeste 0 910.1 -0.5 61
2020-01-20 01:00:00 -1.6 7 Nordeste 22 Nordeste 0 910.2 0 60
2020-01-20 00:00:00 -1.6 12 Nordeste 20 Nordeste 0 910.5 0.8 66
2020-01-19 23:00:00 -1.4 6 Nordeste 22 Nordeste 0 910.6 1 67
2020-01-19 22:00:00 -1 14 Nordeste 45 Nordeste 0 910.2 1.4 67
2020-01-19 21:00:00 -0.7 26 Nordeste 45 Norte 0 909.7 1.3 65
2020-01-19 20:00:00 -0.2 21 Nordeste 44 Norte 0 909.6 1.5 62
2020-01-19 19:00:00 0.7 15 Norte 46 Norte 0 908.8 1.1 63
2020-01-19 18:00:00 1.8 22 Norte 63 Norte 0 908.4 0.8 63
2020-01-19 17:00:00 3.4 20 Norte 62 Nordeste 0 908.1 -0.1 61
2020-01-19 16:00:00 3.9 18 Norte 54 Nordeste 0 907.7 -0.6 61
2020-01-19 15:00:00 3.7 24 Nordeste 50 Nordeste 0 907.6 -0.8 61
2020-01-19 14:00:00 2.8 16 Norte 47 Norte 0 908.2 0.6 68
2020-01-19 13:00:00 2.8 21 Norte 45 Norte 0 908.3 1.8 72
2020-01-19 12:00:00 2.7 14 Norte 42 Nordeste 0 908.4 2.6 75
2020-01-19 11:00:00 2.1 17 Norte 43 Nordeste 0 907.6 2.5 80
2020-01-19 10:00:00 2.1 16 Norte 35 Norte 0.2 906.5 1.5 90
2020-01-19 09:00:00 1.6 15 Norte 32 Noroeste 1 905.8 0.7 98
2020-01-19 08:00:00 1.2 10 Noroeste 24 Norte 0.4 905.1 0 99
2020-01-19 07:00:00 1.5 12 Noroeste 18 Noroeste 0.2 905 0.1 97
2020-01-19 06:00:00 1.9 6 Noroeste 12 Norte 0 905.1 0 97
2020-01-19 05:00:00 2.1 6 Norte 14 Noroeste 0 905.1 0.4 96
2020-01-19 04:00:00 2.5 9 Noroeste 31 Noroeste 0 904.9 -0.3 96
2020-01-19 03:00:00 3 14 Noroeste 24 Noroeste 0 905.1 -0.2 95
2020-01-19 02:00:00 3.3 11 Oeste 20 Oeste 0 904.7 -0.6 95
2020-01-19 01:00:00 3.2 13 Noroeste 32 Noroeste 1.4 905.2 0.2 92
2020-01-19 00:00:00 4.1 7 Oeste 18 Oeste 0 905.3 0.1 93
2020-01-18 23:00:00 4.7 13 Oeste 22 Oeste 0.2 905.3 0.5 93
2020-01-18 22:00:00 5.7 17 Oeste 36 Noroeste 0 905 0.4 88
2020-01-18 21:00:00 6 14 Oeste 65 Oeste 0.4 905.2 1.6 91
2020-01-18 20:00:00 7.3 40 Oeste 66 Oeste 0.2 904.8 0.7 85
2020-01-18 19:00:00 9.1 39 Oeste 59 Oeste 0 904.6 -0.3 67
2020-01-18 18:00:00 10 15 Sudoeste 34 Sudoeste 0 903.6 -1.9 65
2020-01-18 17:00:00 11.9 20 Sudoeste 33 Sudoeste 0 904.1 -2.6 62
2020-01-18 16:00:00 11.9 23 Sudoeste 36 Sudoeste 0 904.9 -3.2 63
2020-01-18 15:00:00 11.9 18 Sur 37 Sudoeste 0 905.5 -4 63
2020-01-18 14:00:00 11.5 22 Sudoeste 37 Sudoeste 0 906.7 -3 65
2020-01-18 13:00:00 11.2 23 Sudoeste 39 Sudoeste 0 908.1 -2.2 67
2020-01-18 12:00:00 10.3 20 Sudoeste 36 Sudoeste 0 909.5 -1.3 71
2020-01-18 11:00:00 8.3 9 Sur 15 Sudoeste 0 909.7 -1.7 78
2020-01-18 10:00:00 6.1 6 Sur 12 Sudeste 0.2 910.3 -1.2 83
2020-01-18 09:00:00 5.6 8 Este 14 Este 0 910.8 -1.3 75
2020-01-18 08:00:00 5.1 4 Sudeste 15 Sudeste 0 911.4 -1.6 73
2020-01-18 07:00:00 4.5 12 Sudeste 20 Sur 0 911.5 -1.5 76
2020-01-18 06:00:00 4.2 12 Sudeste 19 Sur 0 912.1 -0.4 72
2020-01-18 05:00:00 3.6 9 Sudeste 13 Sur 0 913 0.1 77
2020-01-18 04:00:00 4.6 5 Norte 14 Nordeste 0 913 0 69
2020-01-18 03:00:00 4.4 8 Norte 12 Norte 0 912.5 -1.2 66
2020-01-18 02:00:00 3.6 8 Este 30 Oeste 0 912.9 -1.3 72
2020-01-18 01:00:00 5.3 10 Sudeste 31 Oeste 0 913 -1.7 46
2020-01-18 00:00:00 3.8 5 Este 12 Sudeste 0 913.7 -1.7 70
2020-01-17 23:00:00 3.5 10 Sudeste 15 Sudeste 0 914.2 -0.9 76
2020-01-17 22:00:00 3.5 8 Este 14 Este 0 914.7 0 80
2020-01-17 21:00:00 3.4 7 Este 12 Este 0 915.4 0.9 80
2020-01-17 20:00:00 4 7 Sudeste 15 Este 0 915.1 0.8 74
2020-01-17 19:00:00 5.7 3 Nordeste 10 Noroeste 0 914.7 0.9 72
2020-01-17 18:00:00 6.9 8 Oeste 19 Noroeste 0 914.5 0.9 64
2020-01-17 17:00:00 8.2 10 Oeste 28 Noroeste 0 914.3 0.4 61
2020-01-17 16:00:00 8.5 15 Oeste 27 Oeste 0 913.8 -0.6 62
2020-01-17 15:00:00 8.4 19 Oeste 36 Oeste 0 913.6 -1 64
2020-01-17 14:00:00 7.6 19 Oeste 37 Oeste 0 913.9 -0.2 68
2020-01-17 13:00:00 6.9 17 Oeste 29 Oeste 0 914.4 1.2 79
2020-01-17 12:00:00 6.2 20 Oeste 29 Oeste 0 914.6 2.3 87
2020-01-17 11:00:00 5.5 14 Oeste 34 Oeste 0.2 914.1 2.4 94
2020-01-17 10:00:00 5.5 21 Oeste 39 Sudoeste 0 913.2 2.2 89
2020-01-17 09:00:00 6.4 15 Sudoeste 24 Sudoeste 0 912.3 1.7 75
2020-01-17 08:00:00 6.3 17 Sudoeste 24 Sur 0 911.7 1.4 71
2020-01-17 07:00:00 6.3 14 Sudoeste 22 Sudoeste 0 911 0.9 65
2020-01-17 06:00:00 4.7 10 Sur 13 Sur 0 910.6 0.5 73
2020-01-17 05:00:00 4.9 5 Sudoeste 17 Sudoeste 0 910.3 1.1 72
2020-01-17 04:00:00 6.1 14 Sudoeste 20 Sudoeste 0 910.1 1 68
2020-01-17 03:00:00 6.2 13 Sudoeste 23 Sudoeste 0 910.1 0.4 68
2020-01-17 02:00:00 6.7 14 Sudoeste 32 Sudoeste 0 909.2 0.1 68
2020-01-17 01:00:00 7.3 13 Sudoeste 27 Sudoeste 0 909.1 0.6 68
2020-01-17 00:00:00 7.4 9 Sudoeste 22 Sudoeste 0.2 909.7 1.5 74
2020-01-16 23:00:00 8.5 12 Sudoeste 34 Sur 0 909.1 1 65
2020-01-16 22:00:00 9.8 22 Sudoeste 40 Sur 0 908.5 0.7 49
2020-01-16 21:00:00 9.4 26 Sudoeste 44 Sudoeste 0 908.2 0.4 51
2020-01-16 20:00:00 9.2 28 Sudoeste 46 Sudoeste 0 908.1 0.3 54
2020-01-16 19:00:00 9.4 28 Sur 41 Sur 0 907.8 -0.2 54
2020-01-16 18:00:00 9 21 Sur 40 Sur 0 907.8 -0.3 52
2020-01-16 17:00:00 9.9 27 Sur 42 Sur 0 907.8 -0.5 50
2020-01-16 16:00:00 11 29 Sudoeste 47 Sudoeste 0 908 -1.7 49
2020-01-16 15:00:00 11.6 30 Sudoeste 51 Sudoeste 0 908.1 -2.1 45
2020-01-16 14:00:00 12.5 24 Sur 42 Sur 0 908.3 -1.6 50
2020-01-16 13:00:00 11.3 24 Sudoeste 44 Sur 0 909.7 0.1 64
2020-01-16 12:00:00 10.5 18 Sur 37 Sudoeste 0 910.2 0.8 68
2020-01-16 11:00:00 10.8 24 Sudoeste 37 Sudoeste 0 909.9 0.8 67
2020-01-16 10:00:00 9.6 14 Sudoeste 29 Sur 0 909.6 0.7 70
2020-01-16 09:00:00 9.1 15 Sur 25 Sur 0 909.4 0.9 68
2020-01-16 08:00:00 8.5 15 Sur 24 Sur 0 909.1 0.4 72
2020-01-16 07:00:00 6.3 2 Sudoeste 10 Sudoeste 0 908.9 -0.4 77
2020-01-16 06:00:00 7 7 Oeste 10 Noroeste 0 908.5 -0.7 76
2020-01-16 05:00:00 7.4 5 Este 22 Sur 0 908.7 -0.5 72
2020-01-16 04:00:00 7.5 8 Sur 19 Sur 0 909.3 -0.3 72
2020-01-16 03:00:00 7.5 11 Sudeste 18 Sur 0 909.2 -0.7 73
2020-01-16 02:00:00 7.5 5 Este 11 Sudeste 0 909.2 -0.7 73
2020-01-16 01:00:00 7.5 5 Este 12 Sur 0 909.6 -0.2 75
2020-01-16 00:00:00 7.9 6 Este 10 Este 0 909.9 0.3 74
2020-01-15 23:00:00 7.3 5 Este 10 Este 0 909.9 0.4 76
2020-01-15 22:00:00 7.4 3 Sudeste 5 Este 0 909.8 1.1 76
2020-01-15 21:00:00 7.8 2 Nordeste 6 Nordeste 0 909.6 1.5 75
2020-01-15 20:00:00 7.8 5 Nordeste 8 Nordeste 0 909.5 2 75
2020-01-15 19:00:00 8.6 2 Sudoeste 9 Sudoeste 0 908.7 1.5 69
2020-01-15 18:00:00 9.7 7 Sudoeste 23 Sudoeste 0 908.1 1.1 66
2020-01-15 17:00:00 10.7 15 Sudoeste 22 Sudoeste 0 907.5 0.1 63
2020-01-15 16:00:00 11 15 Sudoeste 21 Sudoeste 0 907.2 -0.1 61
2020-01-15 15:00:00 10 16 Sudoeste 28 Sudoeste 0 907 -0.4 65
2020-01-15 14:00:00 9.7 20 Sudoeste 36 Sudoeste 0 907.4 0.5 65
2020-01-15 13:00:00 9.4 18 Sudoeste 26 Sudoeste 0 907.3 1.4 62
2020-01-15 12:00:00 9.2 20 Sudoeste 35 Sudoeste 0 907.4 2.6 62
2020-01-15 11:00:00 8.9 21 Sudoeste 41 Sudoeste 0 906.9 2.2 62
2020-01-15 10:00:00 8.2 17 Sudoeste 29 Sur 0 905.9 1.8 64
2020-01-15 09:00:00 7.1 6 Sudoeste 30 Sudoeste 0 904.8 1 61
2020-01-15 08:00:00 5.6 9 Sudoeste 23 Sudoeste 0 904.7 0.9 64
2020-01-15 07:00:00 5.4 5 Sur 15 Sudoeste 0 904.1 -0.1 65
2020-01-15 06:00:00 5.9 4 Sudoeste 37 Sudoeste 0 903.8 -0.7 64
2020-01-15 05:00:00 6.6 14 Sudoeste 48 Sur 0 903.8 -0.3 62
2020-01-15 04:00:00 6.5 30 Sur 51 Sudoeste 0 904.2 -0.1 66
2020-01-15 03:00:00 7 31 Sudoeste 51 Sudoeste 0 904.5 -0.1 67
2020-01-15 02:00:00 7.7 29 Sudoeste 48 Sudoeste 0 904.1 -0.5 63
2020-01-15 01:00:00 6.7 19 Sur 28 Sur 0 904.3 -0.3 68
2020-01-15 00:00:00 5.6 17 Sur 26 Sur 0 904.6 -0.1 72
2020-01-14 23:00:00 4 4 Sudeste 9 Sur 0 904.6 0.1 72
2020-01-14 22:00:00 3.9 5 Este 9 Este 0 904.6 -0.3 70
2020-01-14 21:00:00 4.4 8 Este 23 Sudeste 0 904.7 0.1 66
2020-01-14 20:00:00 4.9 17 Sudeste 30 Sudeste 0 904.5 0.2 68
2020-01-14 19:00:00 4.3 15 Sudeste 19 Sudeste 0 904.9 0.3 71
2020-01-14 18:00:00 7.2 6 Oeste 8 Oeste 0 904.6 -0.4 61
2020-01-14 17:00:00 8.7 4 Oeste 10 Sudoeste 0 904.3 -1.2 56
2020-01-14 16:00:00 8.7 2 Norte 17 Noroeste 0 904.6 -1.8 58
2020-01-14 15:00:00 8.1 10 Oeste 19 Oeste 0 905 -1.8 60
2020-01-14 14:00:00 7.7 6 Sur 15 Sudoeste 0 905.5 -1.3 62
2020-01-14 13:00:00 5.8 8 Sudeste 19 Sudeste 0 906.4 -0.1 62
2020-01-14 12:00:00 3.3 9 Este 15 Este 0 906.8 0.9 74
2020-01-14 11:00:00 1.3 6 Nordeste 10 Nordeste 0 906.8 1.2 79
2020-01-14 10:00:00 -0.2 0 Calma 8 Nordeste 0 906.5 1.2 76
2020-01-14 09:00:00 -2 5 Este 7 Este 0 905.9 0.6 74
2020-01-14 08:00:00 -2 5 Este 9 Sudeste 0 905.6 0 71
2020-01-14 07:00:00 -2 5 Este 9 Nordeste 0 905.3 -0.3 70
2020-01-14 06:00:00 -1.3 5 Nordeste 7 Este 0 905.3 -0.4 71
2020-01-14 05:00:00 -0.6 5 Este 6 Este 0 905.6 -0.8 69
2020-01-14 04:00:00 -0.6 5 Este 13 Sudeste 0 905.6 -1.7 69
2020-01-14 03:00:00 -0.6 5 Este 8 Nordeste 0 905.7 -1.9 71
2020-01-14 02:00:00 0.5 6 Este 9 Este 0 906.4 -1.1 68
2020-01-14 01:00:00 1.4 5 Nordeste 11 Oeste 0 907.3 0.9 64
2020-01-14 00:00:00 1.6 3 Nordeste 16 Sudeste 0 907.6 1.8 64
2020-01-13 23:00:00 1.1 5 Este 8 Sudeste 0 907.5 1.7 63
2020-01-13 22:00:00 1.9 4 Noroeste 8 Sur 0 906.4 0.7 60
2020-01-13 21:00:00 2.8 4 Este 8 Sudoeste 0 905.8 -0.2 59
2020-01-13 20:00:00 3.4 4 Nordeste 10 Oeste 0 905.8 -0.6 59
2020-01-13 19:00:00 4.5 12 Sudeste 16 Sudeste 0 905.7 -1.2 49
2020-01-13 18:00:00 7.4 5 Oeste 9 Oeste 0 906 -1.4 38
2020-01-13 17:00:00 8.8 4 Oeste 7 Oeste 0 906.4 -2 31
2020-01-13 16:00:00 8.9 7 Sur 13 Sur 0 906.9 -2.1 33
2020-01-13 15:00:00 8.1 5 Sur 12 Sudoeste 0 907.4 -2.3 41
2020-01-13 14:00:00 7.9 6 Sudoeste 12 Oeste 0 908.4 -0.7 48
2020-01-13 13:00:00 6.8 8 Sudoeste 17 Sudoeste 0 909 0.4 48
2020-01-13 12:00:00 5.3 10 Oeste 17 Oeste 0 909.7 1.5 53
2020-01-13 11:00:00 4.6 2 Noroeste 8 Norte 0 909.1 1 51
2020-01-13 10:00:00 1.9 5 Nordeste 8 Nordeste 0 908.6 0.2 50
2020-01-13 09:00:00 0.8 3 Nordeste 6 Este 0 908.2 -1 49
2020-01-13 08:00:00 0.3 5 Este 8 Este 0 908.1 -1.1 53
2020-01-13 07:00:00 -0.1 5 Este 9 Sudeste 0 908.4 -1.3 51
2020-01-13 06:00:00 -0.2 3 Nordeste 6 Este 0 909.2 -0.9 54
2020-01-13 05:00:00 -0.2 4 Este 6 Sudeste 0 909.2 -1.2 53
2020-01-13 04:00:00 -0.3 5 Este 10 Este 0 909.7 -1.5 53
2020-01-13 03:00:00 -0.3 6 Este 7 Este 0 910.1 -1.6 57
2020-01-13 02:00:00 -0.2 5 Este 10 Este 0 910.4 -1.6 58
2020-01-13 01:00:00 0.2 5 Este 8 Este 0 911.2 -1 58
2020-01-13 00:00:00 0.3 4 Este 6 Este 0 911.7 -1.3 62
2020-01-12 23:00:00 0.4 4 Este 6 Este 0 912 -1.1 62
2020-01-12 22:00:00 0.8 6 Este 10 Este 0 912.2 -0.6 61
2020-01-12 21:00:00 1.8 6 Este 14 Este 0 913 0.7 60
2020-01-12 20:00:00 3.1 9 Este 12 Este 0 913.1 0.7 55
2020-01-12 19:00:00 5.4 3 Nordeste 7 Noroeste 0 912.8 0.4 41
2020-01-12 18:00:00 7.5 5 Oeste 6 Oeste 0 912.3 -0.3 35
2020-01-12 17:00:00 8.3 4 Norte 12 Noroeste 0 912.4 -1.1 30
2020-01-12 16:00:00 9.1 5 Noroeste 12 Oeste 0 912.4 -1.8 31
2020-01-12 15:00:00 8.7 6 Oeste 12 Noroeste 0 912.6 -2 32
2020-01-12 14:00:00 7.9 6 Noroeste 15 Oeste 0 913.5 -0.9 34
2020-01-12 13:00:00 7.2 5 Oeste 9 Sudoeste 0 914.2 0.3 33
2020-01-12 12:00:00 5.8 5 Oeste 9 Oeste 0 914.6 0.7 41
2020-01-12 11:00:00 4.6 5 Sur 8 Sur 0 914.4 0.5 40
2020-01-12 10:00:00 1.5 2 Este 6 Este 0 913.9 0.4 45
2020-01-12 09:00:00 -2 5 Este 7 Este 0 913.9 0.4 54
2020-01-12 08:00:00 -0.8 0 Calma 8 Oeste 0 913.9 0.1 46
2020-01-12 07:00:00 -0.5 5 Nordeste 11 Este 0 913.5 -0.7 46
2020-01-12 06:00:00 -1.1 8 Nordeste 12 Este 0 913.5 -0.3 54
2020-01-12 05:00:00 -1.9 5 Este 7 Este 0 913.8 0.1 65
2020-01-12 04:00:00 -1.6 3 Este 5 Este 0 914.2 0.3 60
2020-01-12 03:00:00 -0.7 4 Este 9 Este 0 913.8 -0.1 55
2020-01-12 02:00:00 -0.8 6 Este 9 Este 0 913.7 -0.2 66
2020-01-12 01:00:00 -0.7 5 Este 6 Este 0 913.9 -0.3 73
2020-01-12 00:00:00 -0.6 3 Este 6 Oeste 0 913.9 -0.7 75
2020-01-11 23:00:00 0.1 4 Oeste 9 Nordeste 0 913.9 -0.3 68
2020-01-11 22:00:00 0.6 6 Este 9 Este 0 914.2 0.5 74
2020-01-11 21:00:00 0.5 5 Sudeste 8 Sudeste 0 914.6 1.3 81
2020-01-11 20:00:00 1.7 3 Oeste 7 Sur 0 914.2 1 83
2020-01-11 19:00:00 2.8 3 Sudoeste 5 Sudoeste 0 913.7 0.4 80
2020-01-11 18:00:00 4.9 4 Oeste 10 Oeste 0 913.3 -0.2 75
2020-01-11 17:00:00 6.9 6 Oeste 10 Oeste 0 913.2 -1 61
2020-01-11 16:00:00 7 7 Oeste 10 Oeste 0 913.3 -1.6 58
2020-01-11 15:00:00 6.5 3 Sudeste 11 Oeste 0 913.5 -2 61
2020-01-11 14:00:00 4.2 8 Oeste 12 Oeste 0 914.2 -1.1 77
2020-01-11 13:00:00 2.8 8 Oeste 12 Oeste 0 914.9 0.1 77
2020-01-11 12:00:00 1.1 7 Oeste 9 Oeste 0 915.5 1 87
2020-01-11 11:00:00 -0.2 4 Oeste 6 Noroeste 0 915.3 0.6 91
2020-01-11 10:00:00 -2.2 3 Sur 6 Oeste 0 914.8 0.2 98
2020-01-11 09:00:00 -3 3 Sudoeste 6 Sudeste 0 914.5 0.4 98
2020-01-11 08:00:00 -2 5 Sudeste 7 Sudeste 0 914.7 0.2 97
2020-01-11 07:00:00 -1.7 4 Sudeste 8 Sudeste 0 914.6 -0.2 97
2020-01-11 06:00:00 -0.5 4 Sur 8 Sur 0 914.1 -0.8 95
2020-01-11 05:00:00 -0.1 6 Sur 10 Sur 0 914.5 0.1 95
2020-01-11 04:00:00 -0.1 4 Sur 8 Sur 0 914.8 0.4 95
2020-01-11 03:00:00 -1.1 5 Sur 10 Sur 0 914.9 0.2 95
2020-01-11 02:00:00 -1.4 8 Sur 10 Sur 0 914.4 -0.1 88
2020-01-11 01:00:00 -0.5 4 Sur 10 Sudeste 0 914.4 0 91
2020-01-11 00:00:00 0.4 7 Sudeste 12 Sudeste 0 914.7 0.2 86
2020-01-10 23:00:00 1.9 8 Este 17 Nordeste 0 914.5 0.4 84
2020-01-10 22:00:00 2.5 10 Nordeste 30 Nordeste 0 914.4 0.7 84
2020-01-10 21:00:00 3.3 16 Nordeste 28 Norte 0 914.5 1.3 80
2020-01-10 20:00:00 4 10 Nordeste 21 Norte 0 914.1 1.5 76
2020-01-10 19:00:00 4.6 9 Norte 27 Norte 0 913.7 1.2 73
2020-01-10 18:00:00 5.2 14 Norte 35 Norte 0 913.2 0.8 65
2020-01-10 17:00:00 5.6 24 Nordeste 39 Norte 0 912.6 -0.1 62
2020-01-10 16:00:00 5.9 18 Nordeste 42 Nordeste 0 912.5 -1 61
2020-01-10 15:00:00 6.8 22 Nordeste 36 Nordeste 0 912.4 -0.9 59
2020-01-10 14:00:00 5.7 17 Nordeste 39 Nordeste 0 912.7 -0.3 62
2020-01-10 13:00:00 5.6 17 Nordeste 34 Nordeste 0 913.5 1 66
2020-01-10 12:00:00 3.8 5 Nordeste 13 Oeste 0 913.3 1.1 84
2020-01-10 11:00:00 1.8 5 Oeste 9 Sur 0 913 1.1 95
2020-01-10 10:00:00 0.9 4 Sudoeste 9 Oeste 0 912.5 1.3 97
2020-01-10 09:00:00 0.9 4 Oeste 8 Oeste 0 912.2 1.4 95
2020-01-10 08:00:00 0.9 4 Oeste 9 Noroeste 0 911.9 1.2 95
2020-01-10 07:00:00 1.4 4 Noroeste 9 Norte 0 911.2 0.2 93
2020-01-10 06:00:00 1.8 3 Norte 8 Norte 0 910.8 0.1 96
2020-01-10 05:00:00 2.2 3 Sudoeste 5 Oeste 0 910.7 0 96
2020-01-10 04:00:00 3 5 Oeste 11 Oeste 0 911 0.1 93
2020-01-10 03:00:00 3.5 7 Sudoeste 15 Oeste 0 910.7 -0.3 92
2020-01-10 02:00:00 4.2 10 Oeste 20 Oeste 0 910.7 0.3 90
2020-01-10 01:00:00 5.1 12 Oeste 24 Noroeste 0 910.9 1.2 87
2020-01-10 00:00:00 6.1 15 Oeste 25 Noroeste 0 911 1.3 86
2020-01-09 23:00:00 7.1 11 Oeste 25 Oeste 0 910.4 0.4 87
2020-01-09 22:00:00 7.9 13 Oeste 33 Oeste 0 909.7 -0.3 90
2020-01-09 21:00:00 8.6 14 Sudoeste 22 Oeste 0 909.7 0.2 86
2020-01-09 20:00:00 8.8 9 Oeste 17 Oeste 0 910 1.6 86
2020-01-09 19:00:00 9.6 13 Oeste 29 Oeste 0 910 1.3 83
2020-01-09 18:00:00 10.1 5 Oeste 15 Sur 0 909.5 0.3 76
2020-01-09 17:00:00 11.5 10 Sur 18 Sur 0 908.4 -1.9 69
2020-01-09 16:00:00 11.3 10 Sudoeste 18 Sudoeste 0 908.7 -2.4 69
2020-01-09 15:00:00 11.2 12 Sudoeste 18 Sudoeste 0 909.2 -2.6 67
2020-01-09 14:00:00 11 9 Sudoeste 19 Sur 0 910.3 -1 64
2020-01-09 13:00:00 10.3 9 Sur 18 Oeste 0 911.1 -0.4 52
2020-01-09 12:00:00 8.1 14 Oeste 21 Oeste 0 911.8 1.3 63
2020-01-09 11:00:00 8.5 4 Sur 10 Sudeste 0 911.3 0.9 64
2020-01-09 10:00:00 4.3 7 Sudeste 13 Sudeste 0 911.5 0.6 69
2020-01-09 09:00:00 3 3 Noroeste 12 Sudeste 0 910.5 0.5 68
2020-01-09 08:00:00 2.8 13 Sudeste 19 Sudeste 0 910.4 0.1 68
2020-01-09 07:00:00 0.8 9 Oeste 13 Oeste 0 910.9 0 77
2020-01-09 06:00:00 3.2 6 Nordeste 8 Este 0 910 -1.2 66
2020-01-09 05:00:00 3.4 7 Este 10 Este 0 910.3 -1.3 65
2020-01-09 04:00:00 3.6 6 Este 8 Este 0 910.9 -0.9 65
2020-01-09 03:00:00 3.9 5 Nordeste 9 Este 0 911.2 -0.8 65
2020-01-09 02:00:00 4.1 6 Nordeste 8 Este 0 911.6 -0.4 65
2020-01-09 01:00:00 4.1 5 Nordeste 5 Nordeste 0 911.8 -0.2 69
2020-01-09 00:00:00 4.6 5 Este 7 Este 0 912 -0.2 69
2020-01-08 23:00:00 4.9 3 Nordeste 6 Este 0 912 -0.4 70
2020-01-08 22:00:00 5.2 4 Este 10 Sudeste 0 912 -0.2 70
2020-01-08 21:00:00 5.8 3 Este 6 Sudeste 0 912.2 -0.1 66
2020-01-08 20:00:00 6.8 3 Nordeste 6 Sudeste 0 912.4 0.3 64
2020-01-08 19:00:00 7.6 5 Sudeste 8 Sudoeste 0 912.2 0.2 60
2020-01-08 18:00:00 9.6 6 Sudoeste 9 Oeste 0 912.3 0.3 54
2020-01-08 17:00:00 11.8 6 Oeste 9 Oeste 0 912.1 -0.3 53
2020-01-08 16:00:00 12.3 3 Oeste 14 Oeste 0 912 -1.2 44
2020-01-08 15:00:00 11.6 9 Oeste 13 Oeste 0 912 -2.2 40
2020-01-08 14:00:00 10.8 7 Oeste 12 Oeste 0 912.4 -2.2 38
2020-01-08 13:00:00 9.5 5 Oeste 9 Sudoeste 0 913.2 -1.4 39
2020-01-08 12:00:00 7.6 6 Oeste 9 Oeste 0 914.2 0.3 47
2020-01-08 11:00:00 6.7 4 Oeste 5 Oeste 0 914.6 1.1 51
2020-01-08 10:00:00 3.8 4 Este 6 Este 0 914.6 1.3 46
2020-01-08 09:00:00 2.1 4 Este 7 Este 0 913.9 0.3 52
2020-01-08 08:00:00 1.9 5 Este 8 Este 0 913.5 0 52
2020-01-08 07:00:00 2.2 5 Este 6 Nordeste 0 913.3 -0.6 49
2020-01-08 06:00:00 2.1 6 Este 7 Este 0 913.6 -0.8 51
2020-01-08 05:00:00 1.7 6 Este 8 Este 0 913.5 -1.2 52
2020-01-08 04:00:00 1.7 4 Este 6 Este 0 913.9 -1 56
2020-01-08 03:00:00 1.5 5 Este 6 Este 0 914.4 -0.5 56
2020-01-08 02:00:00 2.1 3 Nordeste 4 Este 0 914.7 -0.3 54
2020-01-08 01:00:00 2.3 4 Nordeste 6 Este 0 914.9 -0.3 53
2020-01-08 00:00:00 2.7 3 Este 6 Este 0 914.9 0.1 55
2020-01-07 23:00:00 2.9 5 Este 7 Nordeste 0 915 0.2 56
2020-01-07 22:00:00 3.5 4 Este 5 Este 0 915.2 0.4 61
2020-01-07 21:00:00 4.3 2 Sudeste 4 Oeste 0 914.8 0.3 61
2020-01-07 20:00:00 5.4 0 Calma 8 Este 0 914.8 0.6 57
2020-01-07 19:00:00 7.4 4 Nordeste 6 Este 0 914.8 0.3 54
2020-01-07 18:00:00 9.8 5 Oeste 7 Oeste 0 914.5 -0.2 40
2020-01-07 17:00:00 11.8 6 Oeste 8 Oeste 0 914.2 -0.8 40
2020-01-07 16:00:00 12.7 5 Oeste 8 Oeste 0 914.5 -1.5 39
2020-01-07 15:00:00 11.9 4 Oeste 11 Noroeste 0 914.7 -1.5 43
2020-01-07 14:00:00 11.6 7 Oeste 12 Oeste 0 915 -1.2 39
2020-01-07 13:00:00 8.8 2 Sudoeste 9 Oeste 0 916 0.1 51
2020-01-07 12:00:00 5.6 7 Oeste 8 Oeste 0 916.2 1.1 59
2020-01-07 11:00:00 2.4 4 Sudoeste 8 Oeste 0 916.2 1.4 66
2020-01-07 10:00:00 2.6 0 Calma 5 Oeste 0 915.9 1.3 58
2020-01-07 09:00:00 0.8 4 Este 9 Este 0 915.1 0.3 57
2020-01-07 08:00:00 0.9 8 Este 9 Este 0 914.8 -0.1 56
2020-01-07 07:00:00 1 4 Este 11 Sudeste 0 914.6 -0.2 56
2020-01-07 06:00:00 0.8 7 Este 9 Este 0 914.8 0 57
2020-01-07 05:00:00 1.4 5 Este 8 Este 0 914.9 0.1 58
2020-01-07 04:00:00 1.3 3 Nordeste 6 Nordeste 0 914.8 0.2 58
2020-01-07 03:00:00 1.5 6 Este 8 Nordeste 0 914.8 0.1 56
2020-01-07 02:00:00 1.8 6 Nordeste 9 Nordeste 0 914.8 0.1 57
2020-01-07 01:00:00 2.5 5 Este 9 Este 0 914.6 -0.1 58
2020-01-07 00:00:00 2.7 4 Este 9 Este 0 914.7 0.1 59
2020-01-06 23:00:00 2.9 5 Nordeste 8 Este 0 914.7 0.5 62
2020-01-06 22:00:00 3.7 5 Este 9 Este 0 914.7 1.5 62
2020-01-06 21:00:00 3.8 5 Este 13 Sudeste 0 914.6 2 69
2020-01-06 20:00:00 5.4 3 Sudeste 6 Noroeste 0 914.2 2.1 60
2020-01-06 19:00:00 8.3 2 Nordeste 4 Sur 0 913.2 1.4 49
2020-01-06 18:00:00 10.4 3 Noroeste 7 Oeste 0 912.6 1 42
2020-01-06 17:00:00 12.9 4 Oeste 10 Oeste 0 912.1 0 36
2020-01-06 16:00:00 13.1 5 Oeste 13 Noroeste 0 911.8 -1.2 30
2020-01-06 15:00:00 12.7 7 Oeste 10 Noroeste 0 911.6 -2 32
2020-01-06 14:00:00 11.9 6 Sudoeste 13 Oeste 0 912.1 -0.9 35
2020-01-06 13:00:00 11 3 Oeste 7 Noroeste 0 913 0.4 27
2020-01-06 12:00:00 10.5 3 Este 6 Noroeste 0 913.6 0.7 31
2020-01-06 11:00:00 8.1 3 Sur 8 Sudeste 0 913 0.8 60
2020-01-06 10:00:00 5.2 5 Este 11 Este 0 912.6 1.6 53